Time;durP1;ratioP1;P1;durP2;ratioP2;P2;SDS_P1;SDS_P2;PMS_P1;PMS_P2;Temp;Humidity;BMP_temperature;BMP_pressure;BME280_temperature;BME280_humidity;BME280_pressure;Samples;Min_cycle;Max_cycle;Signal;HPM_P1;HPM_P2
2023/08/07 00:01:38;;;;;;;2.03;1.83;;;;;;;-143.21;64.17;71249.34;5112984;27;20251;-81
2023/08/07 00:04:05;;;;;;;2.70;2.10;;;;;;;-143.21;64.67;71249.34;5112261;27;20257;-82
2023/08/07 00:06:32;;;;;;;2.20;2.00;;;;;;;-143.21;64.67;71253.28;5112033;27;20210;-81
2023/08/07 00:08:59;;;;;;;2.28;2.08;;;;;;;-143.21;64.65;71255.28;5127373;27;20684;-82
2023/08/07 00:11:28;;;;;;;2.05;1.90;;;;;;;-143.21;64.31;71251.31;5114966;27;20204;-82
2023/08/07 00:13:55;;;;;;;2.35;1.90;;;;;;;-143.21;64.31;71243.38;5112922;28;20204;-82
2023/08/07 00:16:21;;;;;;;2.05;1.80;;;;;;;-143.21;64.55;71239.41;5113221;27;20707;-81
2023/08/07 00:18:48;;;;;;;6.35;1.88;;;;;;;-143.21;64.80;71247.34;5112283;27;20200;-83
2023/08/07 00:21:15;;;;;;;2.58;1.80;;;;;;;-143.21;65.27;71249.34;5111566;27;20204;-83
2023/08/07 00:23:42;;;;;;;1.80;1.70;;;;;;;-143.21;65.93;71273.13;5112090;27;20208;-82
2023/08/07 00:26:11;;;;;;;1.65;1.55;;;;;;;-143.21;66.29;71275.09;5124447;27;20200;-85
2023/08/07 00:28:39;;;;;;;4.65;2.05;;;;;;;-143.21;66.46;71279.06;5118934;27;20220;-85
2023/08/07 00:31:06;;;;;;;2.10;1.90;;;;;;;-143.21;66.29;71279.06;5124223;27;20206;-84
2023/08/07 00:33:33;;;;;;;2.40;2.20;;;;;;;-143.21;65.34;71288.97;5117634;27;20609;-84
2023/08/07 00:36:00;;;;;;;3.55;2.20;;;;;;;-143.21;65.75;71288.97;5112022;27;20200;-85
2023/08/07 00:38:26;;;;;;;2.88;2.03;;;;;;;-143.21;65.80;71292.94;5112159;27;20637;-85
2023/08/07 00:40:53;;;;;;;2.35;2.15;;;;;;;-143.21;65.78;71288.97;5121389;27;20264;-85
2023/08/07 00:43:20;;;;;;;2.10;1.90;;;;;;;-143.21;66.38;71292.94;5119486;27;20269;-85
2023/08/07 00:45:49;;;;;;;2.35;2.15;;;;;;;-143.21;67.10;71294.94;5120556;27;20199;-85
2023/08/07 00:48:17;;;;;;;2.72;2.20;;;;;;;-143.21;67.33;71294.94;5119416;27;20233;-84
2023/08/07 00:50:46;;;;;;;3.08;1.90;;;;;;;-143.21;67.66;71304.84;5112650;27;20712;-85
2023/08/07 00:53:14;;;;;;;3.60;2.00;;;;;;;-143.21;67.45;71294.94;5111676;27;20228;-85
2023/08/07 00:55:41;;;;;;;2.10;1.90;;;;;;;-143.21;67.46;71292.94;5120176;27;20268;-83
2023/08/07 00:58:08;;;;;;;4.85;1.98;;;;;;;-143.21;67.55;71302.84;5127921;27;20206;-83
2023/08/07 01:00:35;;;;;;;4.85;3.00;;;;;;;-143.21;67.22;71316.75;5127203;27;20328;-84
2023/08/07 01:03:06;;;;;;;3.38;3.08;;;;;;;-143.21;67.58;71328.63;5121473;27;20287;-84
2023/08/07 01:05:33;;;;;;;4.00;3.45;;;;;;;-143.21;67.78;71336.56;5111909;27;20238;-83
2023/08/07 01:08:00;;;;;;;4.43;3.25;;;;;;;-143.21;67.70;71338.53;5111563;27;20216;-83
2023/08/07 01:10:36;;;;;;;6.88;3.60;;;;;;;-143.21;67.42;71340.53;5111357;27;20196;-82
2023/08/07 01:13:10;;;;;;;4.03;3.53;;;;;;;-143.21;67.47;71340.53;5111407;27;20207;-83
2023/08/07 01:15:38;;;;;;;6.22;3.67;;;;;;;-143.21;67.32;71344.50;5118632;27;20200;-83
2023/08/07 01:18:09;;;;;;;4.65;3.33;;;;;;;-143.21;67.58;71344.50;5120393;27;20613;-83
2023/08/07 01:20:36;;;;;;;3.92;3.28;;;;;;;-143.21;68.03;71360.34;5112033;27;20204;-84
2023/08/07 01:23:04;;;;;;;4.40;3.60;;;;;;;-143.21;68.27;71368.28;5111775;27;20231;-84
2023/08/07 01:25:31;;;;;;;4.53;3.60;;;;;;;-143.21;68.62;71380.19;5110748;27;20295;-84
2023/08/07 01:28:07;;;;;;;4.57;3.45;;;;;;;-143.21;68.61;71370.28;5111579;27;20220;-84
2023/08/07 01:30:38;;;;;;;4.22;3.50;;;;;;;-143.21;68.41;71372.25;5118327;27;20234;-84
2023/08/07 01:33:11;;;;;;;4.43;3.13;;;;;;;-143.21;68.42;71372.25;5126440;27;20202;-83
2023/08/07 01:35:44;;;;;;;3.42;3.13;;;;;;;-143.21;68.84;71382.16;5119651;27;20281;-84
2023/08/07 01:38:13;;;;;;;3.40;3.10;;;;;;;-143.21;68.87;71380.19;5110780;27;20210;-83
2023/08/07 01:40:41;;;;;;;6.90;3.28;;;;;;;-143.21;69.05;71386.13;5118274;27;20230;-83
2023/08/07 01:43:09;;;;;;;3.80;3.33;;;;;;;-143.21;69.18;71400.00;5120217;27;20211;-84
2023/08/07 01:45:36;;;;;;;3.60;3.30;;;;;;;-143.21;69.24;71398.03;5110674;27;20207;-85
2023/08/07 01:48:02;;;;;;;4.18;3.30;;;;;;;-143.21;69.16;71398.03;5111430;27;20318;-85
2023/08/07 01:50:30;;;;;;;4.53;3.25;;;;;;;-143.21;69.06;71392.06;5110667;27;20286;-85
2023/08/07 01:52:57;;;;;;;4.13;3.05;;;;;;;-143.21;68.99;71388.09;5113858;27;20258;-85
2023/08/07 01:55:25;;;;;;;5.57;3.15;;;;;;;-143.21;69.03;71396.03;5110179;27;20591;-85
2023/08/07 01:57:52;;;;;;;4.75;3.60;;;;;;;-143.21;69.01;71407.94;5115497;27;20206;-85
2023/08/07 02:00:19;;;;;;;7.95;3.42;;;;;;;-143.21;69.42;71403.97;5122230;27;20204;-85
2023/08/07 02:02:46;;;;;;;4.05;3.50;;;;;;;-143.21;68.63;71398.03;5110156;27;20682;-85
2023/08/07 02:05:13;;;;;;;3.95;3.40;;;;;;;-143.21;69.18;71409.91;5110545;27;20208;-85
2023/08/07 02:07:40;;;;;;;5.60;3.30;;;;;;;-143.21;69.31;71407.94;5110824;28;20310;-85
2023/08/07 02:10:08;;;;;;;7.22;3.45;;;;;;;-143.21;69.41;71419.84;5109800;27;20208;-85
2023/08/07 02:12:36;;;;;;;4.25;3.53;;;;;;;-143.21;69.05;71421.81;5112802;27;20245;-85
2023/08/07 02:15:03;;;;;;;3.90;3.50;;;;;;;-143.21;68.93;71423.78;5126497;27;20210;-85
2023/08/07 02:17:31;;;;;;;3.58;3.28;;;;;;;-143.21;69.38;71429.75;5127173;27;20207;-86
2023/08/07 02:19:58;;;;;;;6.35;3.70;;;;;;;-143.21;69.59;71433.72;5124599;27;20210;-86
2023/08/07 02:22:25;;;;;;;3.53;3.22;;;;;;;-143.21;69.96;71443.63;5110741;27;20211;-86
2023/08/07 02:24:51;;;;;;;4.07;3.67;;;;;;;-143.21;69.55;71439.66;5113517;27;20200;-86
2023/08/07 02:27:18;;;;;;;5.57;3.88;;;;;;;-143.21;69.53;71443.63;5110905;27;20491;-86
2023/08/07 02:29:47;;;;;;;3.92;3.42;;;;;;;-143.21;69.89;71449.56;5126716;27;21138;-85
2023/08/07 02:32:13;;;;;;;4.00;3.60;;;;;;;-143.21;69.76;71451.56;5110512;28;20208;-84
2023/08/07 02:34:40;;;;;;;6.03;3.90;;;;;;;-143.21;69.55;71453.53;5126335;27;20203;-84
2023/08/07 02:37:08;;;;;;;4.75;3.58;;;;;;;-143.21;69.38;71443.63;5107630;28;20196;-84
2023/08/07 02:39:35;;;;;;;5.63;3.63;;;;;;;-143.21;69.44;71449.56;5107707;27;20199;-84
2023/08/07 02:42:03;;;;;;;4.20;3.60;;;;;;;-143.21;69.80;71451.56;5123315;27;20597;-85
2023/08/07 02:44:30;;;;;;;5.25;3.63;;;;;;;-143.21;69.74;71459.47;5107547;28;20196;-83
2023/08/07 02:46:58;;;;;;;3.90;3.50;;;;;;;-143.21;69.97;71471.38;5108131;28;20210;-83
2023/08/07 02:49:24;;;;;;;4.93;3.40;;;;;;;-143.21;70.01;71473.38;5115953;28;20583;-83
2023/08/07 02:51:51;;;;;;;4.55;3.55;;;;;;;-143.21;70.18;71483.28;5107738;28;20243;-84
2023/08/07 02:54:18;;;;;;;5.47;3.88;;;;;;;-143.21;70.56;71489.22;5112427;27;20581;-84
2023/08/07 02:56:45;;;;;;;4.10;3.70;;;;;;;-143.21;70.47;71491.22;5107662;28;20204;-84
2023/08/07 02:59:12;;;;;;;4.40;4.00;;;;;;;-143.21;70.49;71493.19;5108370;28;20315;-83
2023/08/07 03:01:38;;;;;;;4.70;3.47;;;;;;;-143.21;70.51;71491.22;5107386;28;20208;-83
2023/08/07 03:04:07;;;;;;;4.88;3.67;;;;;;;-143.21;70.09;71497.16;5108164;28;20272;-84
2023/08/07 03:06:34;;;;;;;5.38;3.40;;;;;;;-143.21;69.98;71501.13;5107909;28;20219;-83
2023/08/07 03:09:00;;;;;;;3.88;3.47;;;;;;;-143.21;70.57;71509.06;5122443;28;20230;-83
2023/08/07 03:11:27;;;;;;;5.45;3.55;;;;;;;-143.21;70.76;71511.03;5110112;28;20662;-83
2023/08/07 03:13:54;;;;;;;6.18;3.83;;;;;;;-143.21;70.93;71509.06;5107545;28;20689;-84
2023/08/07 03:16:21;;;;;;;4.10;3.53;;;;;;;-143.21;71.13;71524.91;5107309;28;20208;-84
2023/08/07 03:18:48;;;;;;;4.70;3.50;;;;;;;-143.21;71.18;71528.88;5121480;27;20195;-85
2023/08/07 03:21:16;;;;;;;4.40;3.53;;;;;;;-143.21;71.16;71522.94;5125214;28;20208;-84
2023/08/07 03:23:43;;;;;;;5.28;3.80;;;;;;;-143.21;71.19;71524.91;5112043;28;20592;-84
2023/08/07 03:26:12;;;;;;;4.00;3.60;;;;;;;-143.21;70.95;71524.91;5107438;27;20213;-85
2023/08/07 03:28:39;;;;;;;4.18;3.78;;;;;;;-143.21;70.57;71526.91;5119444;28;20642;-85
2023/08/07 03:31:06;;;;;;;5.38;4.00;;;;;;;-143.21;70.87;71528.88;5112823;27;20212;-90
2023/08/07 03:33:33;;;;;;;7.88;4.57;;;;;;;-143.21;70.88;71524.91;5119402;28;20210;-89
2023/08/07 03:36:00;;;;;;;5.28;4.07;;;;;;;-143.21;70.76;71532.84;5116539;28;20294;-88
2023/08/07 03:38:28;;;;;;;6.13;3.90;;;;;;;-143.21;70.76;71538.78;5108489;28;20307;-87
2023/08/07 03:40:55;;;;;;;8.77;3.90;;;;;;;-143.21;70.62;71538.78;5107747;28;20215;-88
2023/08/07 03:43:22;;;;;;;4.47;3.80;;;;;;;-143.21;70.44;71548.72;5109963;28;20227;-87
2023/08/07 03:45:55;;;;;;;4.70;4.20;;;;;;;-143.21;71.36;71582.41;5108930;28;20196;-87
2023/08/07 03:48:22;;;;;;;4.30;3.63;;;;;;;-143.21;72.06;71606.22;5108970;28;20672;-88
2023/08/07 03:50:49;;;;;;;5.23;4.20;;;;;;;-143.21;72.07;71592.31;5114264;28;20290;-88
2023/08/07 03:53:15;;;;;;;6.30;4.10;;;;;;;-143.21;71.54;71588.38;5108102;28;20235;-88
2023/08/07 03:55:45;;;;;;;5.10;3.93;;;;;;;-143.21;71.41;71586.38;5117403;27;20203;-87
2023/08/07 03:58:11;;;;;;;5.33;3.97;;;;;;;-143.21;71.39;71584.41;5128241;27;20213;-89
2023/08/07 04:00:38;;;;;;;4.43;4.00;;;;;;;-143.21;70.84;71568.53;5122513;27;20651;-89
2023/08/07 04:03:05;;;;;;;7.93;3.50;;;;;;;-143.21;70.10;71562.59;5112537;27;20195;-88
2023/08/07 04:05:34;;;;;;;5.13;3.57;;;;;;;-143.21;69.94;71560.59;5119104;27;20263;-87
2023/08/07 04:08:01;;;;;;;4.68;3.90;;;;;;;-143.21;69.79;71558.63;5120843;27;20228;-88
2023/08/07 04:10:28;;;;;;;4.57;3.90;;;;;;;-143.21;69.75;71560.59;5116753;27;20203;-89
2023/08/07 04:12:56;;;;;;;5.03;3.40;;;;;;;-143.21;70.01;71570.53;5122466;27;20204;-90
2023/08/07 04:15:23;;;;;;;3.87;3.47;;;;;;;-143.21;69.84;71560.59;5117431;27;20203;-84
2023/08/07 04:17:50;;;;;;;4.00;3.63;;;;;;;-143.21;70.14;71586.38;5122247;27;20274;-85
2023/08/07 04:20:17;;;;;;;3.90;3.50;;;;;;;-143.21;70.65;71614.13;5110856;27;20207;-83
2023/08/07 04:22:44;;;;;;;4.13;3.40;;;;;;;-143.21;71.21;71626.03;5115603;27;20631;-84
2023/08/07 04:25:11;;;;;;;5.27;4.10;;;;;;;-143.21;71.45;71622.06;5102178;27;20195;-84
2023/08/07 04:27:38;;;;;;;6.43;3.73;;;;;;;-143.21;71.71;71635.94;5123420;27;20211;-85
2023/08/07 04:30:08;;;;;;;4.47;3.90;;;;;;;-143.21;71.94;71637.94;5111317;27;20223;-85
2023/08/07 04:32:35;;;;;;;4.10;3.60;;;;;;;-143.21;71.50;71637.94;5110327;27;20200;-85
2023/08/07 04:35:02;;;;;;;4.30;3.90;;;;;;;-143.21;71.94;71633.97;5111198;27;20212;-84
2023/08/07 04:37:30;;;;;;;6.30;4.27;;;;;;;-143.21;72.03;71635.94;5110297;27;20668;-84
2023/08/07 04:39:57;;;;;;;4.53;3.60;;;;;;;-143.21;71.91;71631.97;5109285;27;20998;-83
2023/08/07 04:42:23;;;;;;;5.10;3.97;;;;;;;-143.21;71.89;71614.13;5110685;27;20203;-83
2023/08/07 04:44:50;;;;;;;4.40;4.00;;;;;;;-143.21;71.71;71606.22;5109930;27;20276;-84
2023/08/07 04:47:18;;;;;;;5.57;3.95;;;;;;;-143.21;71.26;71596.28;5110870;27;20196;-82
2023/08/07 04:49:45;;;;;;;4.67;3.83;;;;;;;-143.21;70.88;71594.31;5109980;27;20224;-82
2023/08/07 04:52:12;;;;;;;4.97;3.83;;;;;;;-143.21;70.34;71570.53;5109777;27;20301;-83
2023/08/07 04:54:39;;;;;;;4.17;3.57;;;;;;;-143.21;69.34;71530.88;5111175;27;20204;-83
2023/08/07 04:57:06;;;;;;;6.73;4.03;;;;;;;-143.21;68.63;71516.97;5127494;27;20211;-84
2023/08/07 04:59:33;;;;;;;4.37;3.80;;;;;;;-143.21;68.73;71538.78;5109284;27;20203;-83
2023/08/07 05:02:00;;;;;;;4.07;3.67;;;;;;;-143.21;69.15;71554.66;5110069;27;20208;-82
2023/08/07 05:04:29;;;;;;;4.93;3.50;;;;;;;-143.21;69.17;71566.56;5127211;27;20195;-84
2023/08/07 05:06:56;;;;;;;5.03;3.70;;;;;;;-143.21;70.08;71592.31;5127415;27;20613;-84
2023/08/07 05:09:23;;;;;;;5.20;3.40;;;;;;;-143.21;70.61;71596.28;5109048;27;20231;-84
2023/08/07 05:11:50;;;;;;;4.83;3.70;;;;;;;-143.21;71.32;71610.16;5126757;27;20204;-84
2023/08/07 05:14:17;;;;;;;4.30;3.90;;;;;;;-143.21;71.71;71610.16;5110187;27;20204;-81
2023/08/07 05:16:43;;;;;;;4.13;3.73;;;;;;;-143.21;71.54;71588.38;5127525;27;20214;-84
2023/08/07 05:19:10;;;;;;;3.92;3.55;;;;;;;-143.21;70.03;71534.81;5109331;27;20200;-84
2023/08/07 05:21:39;;;;;;;6.75;3.80;;;;;;;-143.21;68.71;71507.06;5125146;27;20211;-82
2023/08/07 05:24:06;;;;;;;3.97;3.58;;;;;;;-143.21;68.20;71507.06;5110122;27;20200;-84
2023/08/07 05:26:32;;;;;;;4.25;3.85;;;;;;;-143.21;68.61;71515.00;5124954;27;20200;-84
2023/08/07 05:28:59;;;;;;;6.10;3.70;;;;;;;-143.21;68.34;71516.97;5125524;27;20226;-84
2023/08/07 05:31:26;;;;;;;4.22;3.63;;;;;;;-143.21;68.57;71532.84;5112083;27;20203;-84
2023/08/07 05:33:53;;;;;;;5.88;4.05;;;;;;;-143.21;68.68;71538.78;5109171;27;20204;-84
2023/08/07 05:36:20;;;;;;;8.43;3.73;;;;;;;-143.21;68.97;71540.78;5109884;27;20651;-84
2023/08/07 05:38:48;;;;;;;5.82;4.03;;;;;;;-143.21;69.16;71540.78;5109629;27;20235;-84
2023/08/07 05:41:16;;;;;;;8.60;4.47;;;;;;;-143.21;69.20;71532.84;5120562;27;20223;-84
2023/08/07 05:43:43;;;;;;;5.87;3.67;;;;;;;-143.21;68.21;71509.06;5113485;27;20207;-84
2023/08/07 05:46:09;;;;;;;6.20;4.30;;;;;;;-143.21;67.27;71495.19;5108580;28;20264;-82
2023/08/07 05:48:36;;;;;;;6.50;4.65;;;;;;;-143.21;67.00;71501.13;5109477;27;20257;-82
2023/08/07 05:51:03;;;;;;;3.92;3.53;;;;;;;-143.21;67.19;71528.88;5109347;27;20207;-82
2023/08/07 05:53:30;;;;;;;4.65;3.45;;;;;;;-143.21;68.02;71542.75;5108709;27;20243;-82
2023/08/07 05:55:58;;;;;;;4.38;3.97;;;;;;;-143.21;68.60;71542.75;5110716;28;20203;-82
2023/08/07 05:58:25;;;;;;;4.60;3.93;;;;;;;-143.21;68.31;71534.81;5108881;27;20437;-78
2023/08/07 06:00:52;;;;;;;4.80;4.20;;;;;;;-143.21;68.43;71530.88;5108758;27;20264;-80
2023/08/07 06:03:19;;;;;;;4.78;3.92;;;;;;;-143.21;68.34;71524.91;5107416;28;20199;-80
2023/08/07 06:05:46;;;;;;;3.90;3.53;;;;;;;-143.21;68.80;71507.06;5116672;27;20206;-79
2023/08/07 06:08:13;;;;;;;6.07;3.70;;;;;;;-143.21;66.87;71459.47;5108450;27;20674;-79
2023/08/07 06:10:40;;;;;;;5.55;3.95;;;;;;;-143.21;66.37;71433.72;5108205;27;20701;-80
2023/08/07 06:13:08;;;;;;;3.95;3.58;;;;;;;-143.21;66.30;71437.69;5108858;27;20210;-80
2023/08/07 06:15:35;;;;;;;7.53;3.83;;;;;;;-143.21;66.01;71445.59;5108345;27;20200;-81
2023/08/07 06:18:02;;;;;;;4.40;3.50;;;;;;;-143.21;66.47;71457.50;5108349;27;20213;-80
2023/08/07 06:20:28;;;;;;;3.70;3.40;;;;;;;-143.21;66.50;71451.56;5104521;27;20204;-80
2023/08/07 06:22:55;;;;;;;3.40;3.08;;;;;;;-143.21;66.57;71445.59;5111729;27;20205;-80
2023/08/07 06:25:22;;;;;;;4.10;3.30;;;;;;;-143.21;65.70;71437.69;5124111;27;20285;-79
2023/08/07 06:27:49;;;;;;;3.63;3.22;;;;;;;-143.21;65.18;71429.75;5108509;27;20265;-80
2023/08/07 06:30:17;;;;;;;3.85;3.20;;;;;;;-143.21;64.71;71423.78;5106759;28;20568;-78
2023/08/07 06:32:44;;;;;;;6.20;3.35;;;;;;;-143.21;64.74;71409.91;5103744;27;20207;-78
2023/08/07 06:35:11;;;;;;;4.18;3.35;;;;;;;-143.21;64.62;71402.00;5108179;27;20208;-81
2023/08/07 06:37:38;;;;;;;3.42;2.90;;;;;;;-143.21;63.57;71372.25;5119539;27;20212;-78
2023/08/07 06:40:05;;;;;;;6.13;3.25;;;;;;;-143.21;62.05;71342.50;5105679;27;20199;-77
2023/08/07 06:42:32;;;;;;;2.65;2.42;;;;;;;-143.21;61.39;71326.66;5106313;28;20199;-77
2023/08/07 06:44:59;;;;;;;3.05;2.55;;;;;;;-143.21;60.21;71310.78;5107086;28;20199;-78
2023/08/07 06:47:27;;;;;;;2.60;2.40;;;;;;;-143.21;58.63;71308.81;5106582;28;20227;-78
2023/08/07 06:49:54;;;;;;;5.53;3.03;;;;;;;-143.21;57.92;71310.78;5106630;28;21395;-78
2023/08/07 06:52:20;;;;;;;3.13;2.40;;;;;;;-143.21;58.28;71300.88;5106636;28;20239;-77
2023/08/07 06:54:48;;;;;;;4.35;2.38;;;;;;;-143.21;57.45;71283.03;5106922;28;20208;-76
2023/08/07 06:57:15;;;;;;;3.92;2.15;;;;;;;-143.21;56.74;71294.94;5124349;27;20757;-78
2023/08/07 06:59:42;;;;;;;2.60;2.10;;;;;;;-143.21;57.01;71294.94;5123956;28;20785;-77
2023/08/07 07:02:09;;;;;;;3.60;2.35;;;;;;;-143.21;56.92;71298.91;5107240;28;20247;-78
2023/08/07 07:04:37;;;;;;;2.40;2.20;;;;;;;-143.21;57.09;71290.97;5105168;28;20200;-77
2023/08/07 07:07:04;;;;;;;2.92;2.63;;;;;;;-143.21;56.83;71288.97;5122552;28;20199;-78
2023/08/07 07:09:31;;;;;;;3.30;3.00;;;;;;;-143.21;56.46;71279.06;5123307;28;20223;-76
2023/08/07 07:11:58;;;;;;;3.22;2.70;;;;;;;-143.21;56.29;71271.13;5116515;28;20204;-78
2023/08/07 07:14:25;;;;;;;2.83;2.30;;;;;;;-143.21;56.27;71249.34;5105385;27;20739;-78
2023/08/07 07:16:52;;;;;;;1.90;1.70;;;;;;;-143.21;54.59;71237.44;5105766;28;20717;-80
2023/08/07 07:19:18;;;;;;;3.35;1.67;;;;;;;-143.21;53.87;71215.63;5123723;28;20199;-78
2023/08/07 07:21:47;;;;;;;1.98;1.88;;;;;;;-143.21;53.06;71191.84;5108077;28;20211;-77
2023/08/07 07:24:14;;;;;;;3.22;1.90;;;;;;;-143.21;52.10;71193.81;5111818;27;20203;-78
2023/08/07 07:26:40;;;;;;;2.40;2.20;;;;;;;-143.21;54.33;71225.53;5122920;28;20951;-77
2023/08/07 07:29:07;;;;;;;3.53;2.40;;;;;;;-143.21;54.58;71231.50;5122980;27;20300;-78
2023/08/07 07:31:34;;;;;;;2.58;2.00;;;;;;;-143.21;53.56;71241.41;5113485;27;20291;-77
2023/08/07 07:34:01;;;;;;;5.32;1.88;;;;;;;-143.21;54.53;71247.34;5109819;27;20200;-77
2023/08/07 07:36:28;;;;;;;4.35;2.20;;;;;;;-143.21;55.82;71241.41;5110579;27;20211;-79
2023/08/07 07:38:56;;;;;;;2.50;2.30;;;;;;;-143.21;55.79;71239.41;5110908;27;20200;-79
2023/08/07 07:41:24;;;;;;;2.92;2.28;;;;;;;-143.21;56.34;71223.56;5107675;28;20212;-77
2023/08/07 07:43:50;;;;;;;2.33;2.00;;;;;;;-143.21;55.85;71217.59;5110456;27;20296;-76
2023/08/07 07:46:17;;;;;;;4.63;2.50;;;;;;;-143.21;56.42;71197.78;5123635;27;20207;-82
2023/08/07 07:48:44;;;;;;;3.63;2.30;;;;;;;-143.21;55.95;71175.97;5133143;27;20223;-83
2023/08/07 07:51:11;;;;;;;3.15;2.40;;;;;;;-143.21;54.61;71146.25;5133198;27;20230;-82
2023/08/07 07:53:37;;;;;;;5.03;2.10;;;;;;;-143.21;53.12;71130.38;5125989;27;20236;-82
2023/08/07 07:56:06;;;;;;;2.50;2.20;;;;;;;-143.21;53.61;71098.66;5115021;27;20204;-82
2023/08/07 07:58:33;;;;;;;2.20;2.00;;;;;;;-143.21;52.09;71086.75;5112993;27;20200;-82
2023/08/07 08:00:59;;;;;;;3.08;2.25;;;;;;;-143.21;51.36;71080.81;5112840;28;20202;-82
2023/08/07 08:03:27;;;;;;;2.15;1.80;;;;;;;-143.21;51.21;71088.75;5112509;28;20309;-82
2023/08/07 08:05:54;;;;;;;2.25;1.90;;;;;;;-143.21;51.82;71098.66;5113223;28;20565;-82
2023/08/07 08:08:21;;;;;;;2.17;2.03;;;;;;;-143.21;51.80;71076.84;5113438;28;20196;-83
2023/08/07 08:10:48;;;;;;;3.10;2.60;;;;;;;-143.21;51.32;71080.81;5113702;28;20215;-83
2023/08/07 08:13:16;;;;;;;4.22;1.80;;;;;;;-143.21;51.33;71068.94;5112298;28;20228;-83
2023/08/07 08:15:43;;;;;;;2.30;2.10;;;;;;;-143.21;50.55;71068.94;5113299;28;20192;-83
2023/08/07 08:18:11;;;;;;;1.80;1.60;;;;;;;-143.21;50.44;71076.84;5113791;28;20188;-82
2023/08/07 08:20:38;;;;;;;2.20;2.00;;;;;;;-143.21;50.61;71078.84;5113190;28;20200;-84
2023/08/07 08:23:05;;;;;;;1.80;1.70;;;;;;;-143.21;50.52;71086.75;5113902;28;20663;-84
2023/08/07 08:25:32;;;;;;;2.00;1.90;;;;;;;-143.21;51.22;71100.66;5113680;28;20224;-85
2023/08/07 08:27:59;;;;;;;2.42;2.10;;;;;;;-143.21;51.61;71100.66;5111713;28;20724;-83
2023/08/07 08:30:27;;;;;;;2.08;1.90;;;;;;;-143.21;50.99;71098.66;5112029;28;20219;-83
2023/08/07 08:32:54;;;;;;;2.67;2.10;;;;;;;-143.21;51.73;71100.66;5112766;28;20238;-81
2023/08/07 08:35:21;;;;;;;2.83;2.00;;;;;;;-143.21;52.37;71084.78;5111850;28;20196;-81
2023/08/07 08:37:48;;;;;;;3.10;1.90;;;;;;;-143.21;51.72;71062.97;5112029;28;20192;-82
2023/08/07 08:40:17;;;;;;;2.13;1.90;;;;;;;-143.21;51.58;71029.28;5111113;28;20185;-83
2023/08/07 08:42:45;;;;;;;2.35;2.15;;;;;;;-143.21;50.85;71015.41;5113039;28;20203;-84
2023/08/07 08:45:14;;;;;;;2.38;1.90;;;;;;;-143.21;50.15;71015.41;5111499;28;20256;-82
2023/08/07 08:47:44;;;;;;;3.15;1.70;;;;;;;-143.21;51.02;71003.50;5112051;28;20201;-82
2023/08/07 08:50:14;;;;;;;2.63;1.73;;;;;;;-143.21;51.67;70981.69;5111717;28;20224;-83
2023/08/07 08:52:46;;;;;;;2.10;1.90;;;;;;;-143.21;51.32;70953.94;5111756;28;20232;-82
2023/08/07 08:55:14;;;;;;;2.30;1.70;;;;;;;-143.21;50.45;70932.13;5111587;28;20227;-83
2023/08/07 08:57:41;;;;;;;2.65;1.50;;;;;;;-143.21;48.04;70892.50;5111893;28;20713;-83
2023/08/07 09:00:25;;;;;;;2.00;1.80;;;;;;;-143.21;46.69;70864.75;5111510;28;20269;-84
2023/08/07 09:02:54;;;;;;;2.58;1.80;;;;;;;-143.21;46.48;70872.66;5109830;27;20223;-78
2023/08/07 09:05:22;;;;;;;1.90;1.80;;;;;;;-143.21;47.36;70878.63;5109387;28;20200;-78
2023/08/07 09:07:49;;;;;;;2.53;1.83;;;;;;;-143.21;47.95;70878.63;5109869;28;20645;-78
2023/08/07 09:10:17;;;;;;;2.10;1.90;;;;;;;-143.21;47.76;70858.78;5108983;28;20597;-78
2023/08/07 09:12:50;;;;;;;2.38;2.13;;;;;;;-143.21;47.79;70846.91;5109977;28;20188;-77
2023/08/07 09:15:19;;;;;;;2.13;1.90;;;;;;;-143.21;47.27;70833.03;5110358;28;20203;-77
2023/08/07 09:17:47;;;;;;;2.78;2.17;;;;;;;-143.21;47.73;70817.16;5110538;28;20292;-77
2023/08/07 09:20:15;;;;;;;2.05;1.80;;;;;;;-143.21;45.52;70823.13;5110147;28;20678;-77
2023/08/07 09:22:42;;;;;;;1.92;1.80;;;;;;;-143.21;47.51;70846.91;5110348;28;20288;-77
2023/08/07 09:25:10;;;;;;;3.28;1.98;;;;;;;-143.21;48.26;70821.13;5130368;27;20199;-77
2023/08/07 09:27:38;;;;;;;1.88;1.77;;;;;;;-143.21;46.72;70789.41;5129601;27;20927;-78
2023/08/07 09:30:08;;;;;;;2.55;1.90;;;;;;;-143.21;45.66;70779.50;5129248;27;20251;-77
2023/08/07 09:32:35;;;;;;;4.82;2.22;;;;;;;-143.21;45.53;70753.72;5108660;28;20915;-77
2023/08/07 09:35:04;;;;;;;3.53;1.90;;;;;;;-143.21;46.02;70755.72;5107105;28;20718;-77
2023/08/07 09:37:32;;;;;;;1.98;1.80;;;;;;;-143.21;45.32;70767.63;5110445;28;20291;-77
2023/08/07 09:40:01;;;;;;;3.90;1.95;;;;;;;-143.21;46.40;70767.63;5109173;28;20192;-77
2023/08/07 09:42:32;;;;;;;2.08;1.80;;;;;;;-143.21;45.10;70765.63;5111078;28;20196;-77
2023/08/07 09:44:59;;;;;;;2.42;1.80;;;;;;;-143.21;45.99;70751.75;5110721;28;20291;-78
2023/08/07 09:47:26;;;;;;;3.38;1.92;;;;;;;-143.21;45.92;70731.94;5110887;28;20200;-77
2023/08/07 09:49:55;;;;;;;1.80;1.70;;;;;;;-143.21;45.79;70725.97;5112291;28;20273;-77
2023/08/07 09:52:22;;;;;;;2.05;1.75;;;;;;;-143.21;44.24;70684.34;5112110;28;20326;-78
2023/08/07 09:54:50;;;;;;;1.80;1.70;;;;;;;-143.21;43.56;70658.59;5110853;28;20196;-78
2023/08/07 09:57:17;;;;;;;1.90;1.80;;;;;;;-143.21;43.22;70634.81;5112081;28;20204;-78
2023/08/07 09:59:51;;;;;;;2.70;1.63;;;;;;;-143.21;43.01;70620.94;5112113;28;20685;-79
2023/08/07 10:02:18;;;;;;;2.00;1.80;;;;;;;-143.21;42.15;70626.88;5111480;28;20231;-79
2023/08/07 10:04:45;;;;;;;2.67;1.90;;;;;;;-143.21;42.30;70636.78;5111661;28;20204;-78
2023/08/07 10:07:14;;;;;;;2.25;1.50;;;;;;;-143.21;42.18;70618.94;5111703;28;20610;-78
2023/08/07 10:09:42;;;;;;;2.10;1.90;;;;;;;-143.21;42.40;70609.03;5111549;28;20290;-78
2023/08/07 10:12:11;;;;;;;3.05;2.08;;;;;;;-143.21;42.09;70603.09;5111836;28;20245;-78
2023/08/07 10:14:38;;;;;;;3.10;2.25;;;;;;;-143.21;42.35;70593.19;5111355;28;20208;-78
2023/08/07 10:17:06;;;;;;;2.08;1.90;;;;;;;-143.21;42.09;70591.19;5111350;28;20211;-79
2023/08/07 10:19:33;;;;;;;6.50;2.20;;;;;;;-143.21;42.35;70595.16;5105731;27;20211;-79
2023/08/07 10:22:00;;;;;;;2.55;2.10;;;;;;;-143.21;42.04;70569.38;5107441;27;20200;-79
2023/08/07 10:24:28;;;;;;;4.75;3.25;;;;;;;-143.21;42.17;70559.47;5110052;28;20698;-78
2023/08/07 10:26:56;;;;;;;2.83;2.30;;;;;;;-143.21;41.37;70541.63;5107175;28;20283;-79
2023/08/07 10:29:26;;;;;;;2.28;2.03;;;;;;;-143.21;41.76;70525.78;5120988;27;20290;-79
2023/08/07 10:31:54;;;;;;;2.05;1.85;;;;;;;-143.21;41.07;70494.06;5115945;27;20223;-78
2023/08/07 10:34:23;;;;;;;2.20;2.00;;;;;;;-143.21;40.96;70472.25;5109906;28;20211;-78
2023/08/07 10:36:50;;;;;;;2.60;1.83;;;;;;;-143.21;40.12;70450.47;5110964;28;20282;-78
2023/08/07 10:39:17;;;;;;;2.13;1.92;;;;;;;-143.21;40.51;70450.47;5110777;28;20194;-78
2023/08/07 10:41:48;;;;;;;2.22;1.85;;;;;;;-143.21;41.18;70452.44;5110062;28;20650;-78
2023/08/07 10:44:21;;;;;;;1.98;1.88;;;;;;;-143.21;40.73;70436.59;5109990;28;20265;-78
2023/08/07 10:46:50;;;;;;;5.50;1.92;;;;;;;-143.21;40.34;70430.66;5110734;28;20198;-78
2023/08/07 10:49:34;;;;;;;2.28;2.08;;;;;;;-143.21;40.28;70408.84;5110414;28;20257;-78
2023/08/07 10:52:03;;;;;;;1.88;1.70;;;;;;;-143.21;39.98;70402.91;5110378;28;20220;-78
2023/08/07 10:54:30;;;;;;;3.10;2.10;;;;;;;-143.21;40.49;70381.09;5116712;28;20200;-78
2023/08/07 10:56:57;;;;;;;2.03;1.70;;;;;;;-143.21;38.94;70383.06;5110050;28;20200;-78
2023/08/07 10:59:24;;;;;;;5.60;1.88;;;;;;;-143.21;39.21;70412.81;5110440;28;20199;-78
2023/08/07 11:01:56;;;;;;;3.80;2.22;;;;;;;-143.21;40.31;70416.78;5110705;28;20199;-78
2023/08/07 11:04:26;;;;;;;3.38;2.00;;;;;;;-143.21;40.07;70369.19;5110372;28;20582;-78
2023/08/07 11:06:52;;;;;;;1.90;1.80;;;;;;;-143.21;39.38;70331.53;5113000;28;20279;-78
2023/08/07 11:09:19;;;;;;;2.53;2.08;;;;;;;-143.21;39.06;70293.88;5114177;28;20701;-79
2023/08/07 11:11:47;;;;;;;2.05;1.85;;;;;;;-143.21;39.18;70287.94;5114545;28;20227;-77
2023/08/07 11:14:16;;;;;;;2.50;1.90;;;;;;;-143.21;39.08;70291.91;5114799;28;20196;-81
2023/08/07 11:16:44;;;;;;;4.20;2.08;;;;;;;-143.21;38.92;70293.88;5115021;28;20207;-82
2023/08/07 11:19:14;;;;;;;1.88;1.77;;;;;;;-143.21;38.69;70287.94;5109182;28;20200;-82